sensor_id;sensor_type;location;lat;lon;timestamp;pressure;altitude;pressure_sealevel;temperature;humidity
73242;BME280;65659;49.234;-2.094;2023-01-08T00:01:15;98982.85;;;22.78;32.33
73242;BME280;65659;49.234;-2.094;2023-01-08T00:03:41;98977.73;;;22.76;32.26
73242;BME280;65659;49.234;-2.094;2023-01-08T00:06:10;98975.67;;;22.81;32.29
73242;BME280;65659;49.234;-2.094;2023-01-08T00:08:33;98967.96;;;22.84;32.29
73242;BME280;65659;49.234;-2.094;2023-01-08T00:10:58;98965.56;;;23.28;32.23
73242;BME280;65659;49.234;-2.094;2023-01-08T00:13:24;98965.06;;;23.26;32.18
73242;BME280;65659;49.234;-2.094;2023-01-08T00:15:50;98965.04;;;23.00;32.33
73242;BME280;65659;49.234;-2.094;2023-01-08T00:18:15;98967.09;;;23.27;32.30
73242;BME280;65659;49.234;-2.094;2023-01-08T00:20:41;98968.82;;;22.99;32.26
73242;BME280;65659;49.234;-2.094;2023-01-08T00:23:10;98962.92;;;22.95;32.35
73242;BME280;65659;49.234;-2.094;2023-01-08T00:25:32;98961.56;;;23.22;32.22
73242;BME280;65659;49.234;-2.094;2023-01-08T00:27:58;98962.63;;;22.73;32.28
73242;BME280;65659;49.234;-2.094;2023-01-08T00:30:24;98958.53;;;22.93;32.25
73242;BME280;65659;49.234;-2.094;2023-01-08T00:32:50;98958.90;;;22.94;32.26
73242;BME280;65659;49.234;-2.094;2023-01-08T00:35:15;98953.10;;;22.92;32.25
73242;BME280;65659;49.234;-2.094;2023-01-08T00:37:41;98948.33;;;23.02;32.15
73242;BME280;65659;49.234;-2.094;2023-01-08T00:40:08;98942.67;;;22.67;32.26
73242;BME280;65659;49.234;-2.094;2023-01-08T00:42:32;98948.87;;;22.96;32.20
73242;BME280;65659;49.234;-2.094;2023-01-08T00:44:58;98948.90;;;23.17;32.23
73242;BME280;65659;49.234;-2.094;2023-01-08T00:47:24;98947.87;;;23.16;32.30
73242;BME280;65659;49.234;-2.094;2023-01-08T00:49:49;98947.83;;;23.15;32.21
73242;BME280;65659;49.234;-2.094;2023-01-08T00:52:15;98944.86;;;22.72;32.29
73242;BME280;65659;49.234;-2.094;2023-01-08T00:54:41;98947.97;;;23.14;32.28
73242;BME280;65659;49.234;-2.094;2023-01-08T00:57:07;98946.68;;;22.64;32.25
73242;BME280;65659;49.234;-2.094;2023-01-08T00:59:33;98943.82;;;23.12;32.34
73242;BME280;65659;49.234;-2.094;2023-01-08T01:01:58;98942.00;;;22.90;32.18
73242;BME280;65659;49.234;-2.094;2023-01-08T01:04:25;98932.59;;;22.87;32.18
73242;BME280;65659;49.234;-2.094;2023-01-08T01:06:49;98922.83;;;22.90;32.19
73242;BME280;65659;49.234;-2.094;2023-01-08T01:09:15;98923.64;;;22.95;32.19
73242;BME280;65659;49.234;-2.094;2023-01-08T01:11:41;98919.74;;;23.16;32.11
73242;BME280;65659;49.234;-2.094;2023-01-08T01:14:08;98914.56;;;23.15;32.24
73242;BME280;65659;49.234;-2.094;2023-01-08T01:16:32;98912.02;;;23.13;32.17
73242;BME280;65659;49.234;-2.094;2023-01-08T01:18:58;98911.46;;;22.91;32.12
73242;BME280;65659;49.234;-2.094;2023-01-08T01:21:26;98907.91;;;22.86;32.23
73242;BME280;65659;49.234;-2.094;2023-01-08T01:23:51;98902.07;;;22.86;32.09
73242;BME280;65659;49.234;-2.094;2023-01-08T01:26:16;98902.08;;;23.10;32.18
73242;BME280;65659;49.234;-2.094;2023-01-08T01:28:41;98896.04;;;23.14;32.15
73242;BME280;65659;49.234;-2.094;2023-01-08T01:31:10;98891.08;;;23.12;32.13
73242;BME280;65659;49.234;-2.094;2023-01-08T01:33:32;98891.16;;;22.93;32.02
73242;BME280;65659;49.234;-2.094;2023-01-08T01:36:00;98881.42;;;22.87;31.86
73242;BME280;65659;49.234;-2.094;2023-01-08T01:38:23;98882.21;;;22.85;31.82
73242;BME280;65659;49.234;-2.094;2023-01-08T01:40:49;98889.56;;;23.24;31.94
73242;BME280;65659;49.234;-2.094;2023-01-08T01:45:41;98879.25;;;22.87;32.04
73242;BME280;65659;49.234;-2.094;2023-01-08T01:48:11;98880.96;;;22.96;31.93
73242;BME280;65659;49.234;-2.094;2023-01-08T01:50:35;98878.05;;;23.11;31.90
73242;BME280;65659;49.234;-2.094;2023-01-08T01:53:02;98877.99;;;22.88;32.02
73242;BME280;65659;49.234;-2.094;2023-01-08T01:55:25;98871.55;;;22.74;31.83
73242;BME280;65659;49.234;-2.094;2023-01-08T01:57:54;98868.70;;;22.75;31.91
73242;BME280;65659;49.234;-2.094;2023-01-08T02:00:16;98866.10;;;23.17;31.98
73242;BME280;65659;49.234;-2.094;2023-01-08T02:02:41;98868.33;;;22.64;31.81
73242;BME280;65659;49.234;-2.094;2023-01-08T02:05:07;98871.48;;;23.20;31.92
73242;BME280;65659;49.234;-2.094;2023-01-08T02:07:38;98876.62;;;22.95;31.80
73242;BME280;65659;49.234;-2.094;2023-01-08T02:10:03;98879.96;;;22.94;31.93
73242;BME280;65659;49.234;-2.094;2023-01-08T02:12:28;98873.38;;;22.91;31.81
73242;BME280;65659;49.234;-2.094;2023-01-08T02:14:59;98874.33;;;22.97;31.82
73242;BME280;65659;49.234;-2.094;2023-01-08T02:17:18;98875.67;;;23.11;31.97
73242;BME280;65659;49.234;-2.094;2023-01-08T02:19:45;98882.09;;;22.65;31.93
73242;BME280;65659;49.234;-2.094;2023-01-08T02:22:17;98885.63;;;23.15;31.88
73242;BME280;65659;49.234;-2.094;2023-01-08T02:24:42;98889.50;;;22.91;31.90
73242;BME280;65659;49.234;-2.094;2023-01-08T02:26:59;98887.01;;;22.88;31.87
73242;BME280;65659;49.234;-2.094;2023-01-08T02:29:25;98890.25;;;23.10;31.82
73242;BME280;65659;49.234;-2.094;2023-01-08T02:31:49;98886.38;;;23.05;31.88
73242;BME280;65659;49.234;-2.094;2023-01-08T02:34:15;98892.10;;;23.04;31.88
73242;BME280;65659;49.234;-2.094;2023-01-08T02:36:42;98893.82;;;23.02;31.98
73242;BME280;65659;49.234;-2.094;2023-01-08T02:39:24;98891.71;;;23.05;31.81
73242;BME280;65659;49.234;-2.094;2023-01-08T02:41:38;98887.87;;;23.06;31.84
73242;BME280;65659;49.234;-2.094;2023-01-08T02:43:58;98890.84;;;23.04;31.80
73242;BME280;65659;49.234;-2.094;2023-01-08T02:46:26;98890.73;;;22.81;31.87
73242;BME280;65659;49.234;-2.094;2023-01-08T02:48:53;98892.46;;;23.05;31.83
73242;BME280;65659;49.234;-2.094;2023-01-08T02:51:20;98897.09;;;23.06;31.85
73242;BME280;65659;49.234;-2.094;2023-01-08T02:53:43;98892.47;;;22.84;31.83
73242;BME280;65659;49.234;-2.094;2023-01-08T02:56:09;98894.02;;;23.05;31.75
73242;BME280;65659;49.234;-2.094;2023-01-08T02:58:34;98895.49;;;23.06;31.82
73242;BME280;65659;49.234;-2.094;2023-01-08T03:00:58;98894.70;;;23.09;31.80
73242;BME280;65659;49.234;-2.094;2023-01-08T03:03:26;98895.81;;;22.83;31.78
73242;BME280;65659;49.234;-2.094;2023-01-08T03:05:52;98899.59;;;23.05;31.79
73242;BME280;65659;49.234;-2.094;2023-01-08T03:08:16;98888.98;;;23.07;31.74
73242;BME280;65659;49.234;-2.094;2023-01-08T03:10:42;98884.47;;;23.06;31.82
73242;BME280;65659;49.234;-2.094;2023-01-08T03:13:09;98884.30;;;23.10;31.74
73242;BME280;65659;49.234;-2.094;2023-01-08T03:15:36;98881.33;;;23.02;31.83
73242;BME280;65659;49.234;-2.094;2023-01-08T03:18:02;98877.93;;;23.01;31.67
73242;BME280;65659;49.234;-2.094;2023-01-08T03:20:24;98876.55;;;23.04;31.80
73242;BME280;65659;49.234;-2.094;2023-01-08T03:22:52;98880.31;;;22.98;31.78
73242;BME280;65659;49.234;-2.094;2023-01-08T03:25:17;98877.49;;;22.73;31.77
73242;BME280;65659;49.234;-2.094;2023-01-08T03:27:43;98881.48;;;23.01;31.78
73242;BME280;65659;49.234;-2.094;2023-01-08T03:30:08;98875.92;;;22.96;31.89
73242;BME280;65659;49.234;-2.094;2023-01-08T03:32:33;98879.14;;;22.79;31.80
73242;BME280;65659;49.234;-2.094;2023-01-08T03:34:59;98871.65;;;22.57;31.69
73242;BME280;65659;49.234;-2.094;2023-01-08T03:37:26;98873.34;;;23.04;31.73
73242;BME280;65659;49.234;-2.094;2023-01-08T03:39:55;98868.46;;;23.04;31.67
73242;BME280;65659;49.234;-2.094;2023-01-08T03:42:16;98867.29;;;22.81;31.74
73242;BME280;65659;49.234;-2.094;2023-01-08T03:44:41;98872.50;;;22.57;31.66
73242;BME280;65659;49.234;-2.094;2023-01-08T03:47:07;98867.77;;;23.08;31.67
73242;BME280;65659;49.234;-2.094;2023-01-08T03:49:33;98871.61;;;23.09;31.68
73242;BME280;65659;49.234;-2.094;2023-01-08T03:51:58;98870.71;;;23.10;31.61
73242;BME280;65659;49.234;-2.094;2023-01-08T03:54:28;98875.94;;;23.07;31.72
73242;BME280;65659;49.234;-2.094;2023-01-08T03:56:49;98874.75;;;23.07;31.53
73242;BME280;65659;49.234;-2.094;2023-01-08T03:59:15;98878.11;;;23.11;31.62
73242;BME280;65659;49.234;-2.094;2023-01-08T04:01:41;98871.81;;;22.81;31.60
73242;BME280;65659;49.234;-2.094;2023-01-08T04:04:07;98873.76;;;22.85;31.59
73242;BME280;65659;49.234;-2.094;2023-01-08T04:06:32;98870.72;;;23.06;31.57
73242;BME280;65659;49.234;-2.094;2023-01-08T04:08:58;98865.31;;;23.18;31.49
73242;BME280;65659;49.234;-2.094;2023-01-08T04:11:24;98864.15;;;23.10;31.51
73242;BME280;65659;49.234;-2.094;2023-01-08T04:13:49;98856.23;;;23.08;31.56
73242;BME280;65659;49.234;-2.094;2023-01-08T04:16:15;98858.96;;;22.84;31.52
73242;BME280;65659;49.234;-2.094;2023-01-08T04:18:40;98854.26;;;22.77;31.67
73242;BME280;65659;49.234;-2.094;2023-01-08T04:21:06;98854.21;;;22.76;31.56
73242;BME280;65659;49.234;-2.094;2023-01-08T04:23:32;98855.00;;;23.00;31.63
73242;BME280;65659;49.234;-2.094;2023-01-08T04:25:58;98849.47;;;22.78;31.59
73242;BME280;65659;49.234;-2.094;2023-01-08T04:28:23;98843.15;;;22.78;31.63
73242;BME280;65659;49.234;-2.094;2023-01-08T04:30:49;98844.61;;;22.58;31.50
73242;BME280;65659;49.234;-2.094;2023-01-08T04:33:15;98843.62;;;23.07;31.55
73242;BME280;65659;49.234;-2.094;2023-01-08T04:35:41;98846.84;;;22.78;31.64
73242;BME280;65659;49.234;-2.094;2023-01-08T04:38:06;98840.60;;;22.82;31.57
73242;BME280;65659;49.234;-2.094;2023-01-08T04:40:32;98837.48;;;23.09;31.48
73242;BME280;65659;49.234;-2.094;2023-01-08T04:42:58;98841.82;;;23.08;31.52
73242;BME280;65659;49.234;-2.094;2023-01-08T04:45:23;98837.58;;;22.79;31.52
73242;BME280;65659;49.234;-2.094;2023-01-08T04:47:54;98840.74;;;22.78;31.50
73242;BME280;65659;49.234;-2.094;2023-01-08T04:50:15;98833.54;;;23.03;31.52
73242;BME280;65659;49.234;-2.094;2023-01-08T04:52:40;98832.15;;;22.98;31.61
73242;BME280;65659;49.234;-2.094;2023-01-08T04:55:07;98830.39;;;22.98;31.51
73242;BME280;65659;49.234;-2.094;2023-01-08T04:57:32;98824.62;;;22.47;31.52
73242;BME280;65659;49.234;-2.094;2023-01-08T04:59:57;98821.24;;;23.01;31.49
73242;BME280;65659;49.234;-2.094;2023-01-08T05:02:24;98813.58;;;23.02;31.53
73242;BME280;65659;49.234;-2.094;2023-01-08T05:04:49;98816.07;;;22.79;31.47
73242;BME280;65659;49.234;-2.094;2023-01-08T05:07:14;98812.08;;;23.01;31.43
73242;BME280;65659;49.234;-2.094;2023-01-08T05:09:40;98806.69;;;22.99;31.52
73242;BME280;65659;49.234;-2.094;2023-01-08T05:12:06;98797.62;;;22.77;31.50
73242;BME280;65659;49.234;-2.094;2023-01-08T05:14:32;98795.89;;;22.97;31.52
73242;BME280;65659;49.234;-2.094;2023-01-08T05:16:57;98797.78;;;22.74;31.40
73242;BME280;65659;49.234;-2.094;2023-01-08T05:19:23;98794.83;;;22.96;31.54
73242;BME280;65659;49.234;-2.094;2023-01-08T05:21:49;98795.08;;;22.71;31.50
73242;BME280;65659;49.234;-2.094;2023-01-08T05:24:15;98796.31;;;23.02;31.48
73242;BME280;65659;49.234;-2.094;2023-01-08T05:26:40;98792.82;;;22.79;31.44
73242;BME280;65659;49.234;-2.094;2023-01-08T05:29:06;98794.42;;;22.68;31.48
73242;BME280;65659;49.234;-2.094;2023-01-08T05:31:32;98787.96;;;22.97;31.39
73242;BME280;65659;49.234;-2.094;2023-01-08T05:33:58;98785.30;;;22.75;31.50
73242;BME280;65659;49.234;-2.094;2023-01-08T05:36:23;98782.08;;;22.99;31.47
73242;BME280;65659;49.234;-2.094;2023-01-08T05:38:50;98782.37;;;22.94;31.44
73242;BME280;65659;49.234;-2.094;2023-01-08T05:41:15;98779.48;;;22.45;31.47
73242;BME280;65659;49.234;-2.094;2023-01-08T05:43:40;98778.92;;;22.93;31.44
73242;BME280;65659;49.234;-2.094;2023-01-08T05:46:06;98780.89;;;22.95;31.45
73242;BME280;65659;49.234;-2.094;2023-01-08T05:48:33;98775.38;;;22.96;31.40
73242;BME280;65659;49.234;-2.094;2023-01-08T05:50:57;98774.65;;;22.50;31.39
73242;BME280;65659;49.234;-2.094;2023-01-08T05:53:23;98775.38;;;22.77;31.37
73242;BME280;65659;49.234;-2.094;2023-01-08T05:55:49;98775.21;;;22.53;31.31
73242;BME280;65659;49.234;-2.094;2023-01-08T05:58:14;98779.53;;;23.00;31.42
73242;BME280;65659;49.234;-2.094;2023-01-08T06:00:40;98771.41;;;22.57;31.24
73242;BME280;65659;49.234;-2.094;2023-01-08T06:03:07;98775.56;;;22.60;31.26
73242;BME280;65659;49.234;-2.094;2023-01-08T06:05:32;98763.44;;;22.64;31.15
73242;BME280;65659;49.234;-2.094;2023-01-08T06:07:57;98769.19;;;22.60;31.26
73242;BME280;65659;49.234;-2.094;2023-01-08T06:10:23;98764.82;;;22.78;31.30
73242;BME280;65659;49.234;-2.094;2023-01-08T06:12:49;98767.34;;;22.97;31.29
73242;BME280;65659;49.234;-2.094;2023-01-08T06:15:15;98767.82;;;23.00;31.32
73242;BME280;65659;49.234;-2.094;2023-01-08T06:17:40;98766.52;;;22.93;31.34
73242;BME280;65659;49.234;-2.094;2023-01-08T06:20:07;98767.45;;;22.97;31.30
73242;BME280;65659;49.234;-2.094;2023-01-08T06:22:32;98761.36;;;22.96;31.35
73242;BME280;65659;49.234;-2.094;2023-01-08T06:24:57;98761.25;;;22.90;31.43
73242;BME280;65659;49.234;-2.094;2023-01-08T06:27:23;98755.83;;;22.71;31.32
73242;BME280;65659;49.234;-2.094;2023-01-08T06:29:49;98753.39;;;22.93;31.38
73242;BME280;65659;49.234;-2.094;2023-01-08T06:32:14;98751.96;;;22.44;31.30
73242;BME280;65659;49.234;-2.094;2023-01-08T06:34:40;98754.28;;;22.72;31.32
73242;BME280;65659;49.234;-2.094;2023-01-08T06:37:06;98748.89;;;22.95;31.28
73242;BME280;65659;49.234;-2.094;2023-01-08T06:39:32;98745.24;;;22.92;31.39
73242;BME280;65659;49.234;-2.094;2023-01-08T06:41:57;98740.59;;;22.72;31.32
73242;BME280;65659;49.234;-2.094;2023-01-08T06:44:23;98744.04;;;22.95;31.30
73242;BME280;65659;49.234;-2.094;2023-01-08T06:46:49;98738.87;;;22.91;31.35
73242;BME280;65659;49.234;-2.094;2023-01-08T06:49:14;98739.99;;;22.63;31.42
73242;BME280;65659;49.234;-2.094;2023-01-08T06:51:40;98738.99;;;22.64;31.36
73242;BME280;65659;49.234;-2.094;2023-01-08T06:54:06;98725.42;;;22.43;31.29
73242;BME280;65659;49.234;-2.094;2023-01-08T06:56:31;98728.14;;;22.38;31.33
73242;BME280;65659;49.234;-2.094;2023-01-08T06:58:57;98728.38;;;22.93;31.28
73242;BME280;65659;49.234;-2.094;2023-01-08T07:01:23;98725.73;;;22.75;30.94
73242;BME280;65659;49.234;-2.094;2023-01-08T07:03:49;98723.44;;;22.67;31.02
73242;BME280;65659;49.234;-2.094;2023-01-08T07:06:16;98719.55;;;22.86;30.96
73242;BME280;65659;49.234;-2.094;2023-01-08T07:08:40;98719.40;;;22.59;31.07
73242;BME280;65659;49.234;-2.094;2023-01-08T07:11:06;98715.53;;;23.07;31.03
73242;BME280;65659;49.234;-2.094;2023-01-08T07:13:31;98713.16;;;22.57;31.11
73242;BME280;65659;49.234;-2.094;2023-01-08T07:15:58;98706.72;;;22.79;31.12
73242;BME280;65659;49.234;-2.094;2023-01-08T07:18:23;98703.56;;;22.79;31.06
73242;BME280;65659;49.234;-2.094;2023-01-08T07:20:49;98700.07;;;22.73;31.12
73242;BME280;65659;49.234;-2.094;2023-01-08T07:23:14;98698.35;;;22.74;31.19
73242;BME280;65659;49.234;-2.094;2023-01-08T07:25:40;98698.70;;;22.73;31.15
73242;BME280;65659;49.234;-2.094;2023-01-08T07:28:08;98685.61;;;22.70;31.16
73242;BME280;65659;49.234;-2.094;2023-01-08T07:30:32;98681.28;;;22.68;31.23
73242;BME280;65659;49.234;-2.094;2023-01-08T07:32:58;98676.55;;;22.70;31.19
73242;BME280;65659;49.234;-2.094;2023-01-08T07:35:23;98671.49;;;22.72;31.15
73242;BME280;65659;49.234;-2.094;2023-01-08T07:37:49;98669.66;;;22.50;31.15
73242;BME280;65659;49.234;-2.094;2023-01-08T07:40:14;98669.52;;;22.96;31.10
73242;BME280;65659;49.234;-2.094;2023-01-08T07:42:40;98664.94;;;22.93;31.21
73242;BME280;65659;49.234;-2.094;2023-01-08T07:45:07;98660.58;;;22.95;31.10
73242;BME280;65659;49.234;-2.094;2023-01-08T07:47:31;98652.94;;;22.47;31.13
73242;BME280;65659;49.234;-2.094;2023-01-08T07:49:57;98652.83;;;22.92;31.18
73242;BME280;65659;49.234;-2.094;2023-01-08T07:52:23;98648.30;;;22.46;31.13
73242;BME280;65659;49.234;-2.094;2023-01-08T07:54:49;98640.79;;;22.68;31.15
73242;BME280;65659;49.234;-2.094;2023-01-08T07:57:14;98640.87;;;22.67;31.10
73242;BME280;65659;49.234;-2.094;2023-01-08T07:59:40;98640.26;;;22.93;31.10
73242;BME280;65659;49.234;-2.094;2023-01-08T08:02:06;98638.75;;;22.70;31.08
73242;BME280;65659;49.234;-2.094;2023-01-08T08:04:32;98641.52;;;22.74;31.09
73242;BME280;65659;49.234;-2.094;2023-01-08T08:06:57;98640.63;;;22.71;31.09
73242;BME280;65659;49.234;-2.094;2023-01-08T08:09:23;98636.99;;;22.93;31.09
73242;BME280;65659;49.234;-2.094;2023-01-08T08:11:49;98631.80;;;22.71;31.06
73242;BME280;65659;49.234;-2.094;2023-01-08T08:14:14;98626.06;;;22.96;31.05
73242;BME280;65659;49.234;-2.094;2023-01-08T08:16:40;98625.51;;;22.68;31.07
73242;BME280;65659;49.234;-2.094;2023-01-08T08:19:06;98623.07;;;22.89;31.11
73242;BME280;65659;49.234;-2.094;2023-01-08T08:21:32;98623.01;;;22.66;31.11
73242;BME280;65659;49.234;-2.094;2023-01-08T08:23:57;98624.72;;;22.66;31.10
73242;BME280;65659;49.234;-2.094;2023-01-08T08:26:23;98616.45;;;22.64;31.14
73242;BME280;65659;49.234;-2.094;2023-01-08T08:28:49;98615.61;;;22.68;31.09
73242;BME280;65659;49.234;-2.094;2023-01-08T08:31:14;98611.41;;;22.63;31.10
73242;BME280;65659;49.234;-2.094;2023-01-08T08:33:40;98615.17;;;22.68;31.02
73242;BME280;65659;49.234;-2.094;2023-01-08T08:36:07;98614.24;;;22.73;31.01
73242;BME280;65659;49.234;-2.094;2023-01-08T08:38:32;98606.62;;;22.56;30.93
73242;BME280;65659;49.234;-2.094;2023-01-08T08:40:57;98606.00;;;23.04;30.90
73242;BME280;65659;49.234;-2.094;2023-01-08T08:43:23;98598.78;;;22.53;30.95
73242;BME280;65659;49.234;-2.094;2023-01-08T08:45:49;98599.96;;;22.98;30.97
73242;BME280;65659;49.234;-2.094;2023-01-08T08:48:14;98600.09;;;22.94;31.00
73242;BME280;65659;49.234;-2.094;2023-01-08T08:50:40;98601.25;;;22.54;30.95
73242;BME280;65659;49.234;-2.094;2023-01-08T08:53:06;98595.58;;;22.58;30.90
73242;BME280;65659;49.234;-2.094;2023-01-08T08:55:32;98591.02;;;23.14;30.80
73242;BME280;65659;49.234;-2.094;2023-01-08T08:58:03;98591.22;;;22.83;30.89
73242;BME280;65659;49.234;-2.094;2023-01-08T09:00:23;98585.21;;;23.03;30.89
73242;BME280;65659;49.234;-2.094;2023-01-08T09:02:49;98594.24;;;23.00;30.92
73242;BME280;65659;49.234;-2.094;2023-01-08T09:05:15;98597.07;;;22.75;30.96
73242;BME280;65659;49.234;-2.094;2023-01-08T09:07:40;98595.76;;;22.92;30.97
73242;BME280;65659;49.234;-2.094;2023-01-08T09:10:07;98590.65;;;22.94;30.97
73242;BME280;65659;49.234;-2.094;2023-01-08T09:12:32;98586.30;;;22.51;30.92
73242;BME280;65659;49.234;-2.094;2023-01-08T09:14:57;98583.87;;;22.92;30.99
73242;BME280;65659;49.234;-2.094;2023-01-08T09:17:23;98573.29;;;22.93;30.93
73242;BME280;65659;49.234;-2.094;2023-01-08T09:19:49;98571.26;;;22.74;30.94
73242;BME280;65659;49.234;-2.094;2023-01-08T09:22:14;98571.68;;;22.69;30.99
73242;BME280;65659;49.234;-2.094;2023-01-08T09:24:40;98560.47;;;22.67;30.95
73242;BME280;65659;49.234;-2.094;2023-01-08T09:27:06;98558.60;;;22.43;30.99
73242;BME280;65659;49.234;-2.094;2023-01-08T09:29:31;98562.09;;;22.77;30.89
73242;BME280;65659;49.234;-2.094;2023-01-08T09:31:57;98560.66;;;22.94;30.96
73242;BME280;65659;49.234;-2.094;2023-01-08T09:34:23;98561.70;;;22.94;30.96
73242;BME280;65659;49.234;-2.094;2023-01-08T09:36:48;98556.95;;;22.52;30.86
73242;BME280;65659;49.234;-2.094;2023-01-08T09:39:14;98554.04;;;22.45;30.97
73242;BME280;65659;49.234;-2.094;2023-01-08T09:41:43;98547.56;;;22.69;30.94
73242;BME280;65659;49.234;-2.094;2023-01-08T09:44:06;98551.49;;;22.66;30.95
73242;BME280;65659;49.234;-2.094;2023-01-08T09:46:31;98548.37;;;22.91;30.97
73242;BME280;65659;49.234;-2.094;2023-01-08T09:49:00;98539.58;;;22.92;30.91
73242;BME280;65659;49.234;-2.094;2023-01-08T09:51:29;98542.08;;;22.68;30.94
73242;BME280;65659;49.234;-2.094;2023-01-08T09:53:53;98533.95;;;22.67;30.88
73242;BME280;65659;49.234;-2.094;2023-01-08T09:56:16;98526.17;;;22.94;30.90
73242;BME280;65659;49.234;-2.094;2023-01-08T09:58:43;98522.75;;;23.01;30.83
73242;BME280;65659;49.234;-2.094;2023-01-08T10:01:06;98526.62;;;22.74;30.85
73242;BME280;65659;49.234;-2.094;2023-01-08T10:03:38;98523.47;;;22.72;30.85
73242;BME280;65659;49.234;-2.094;2023-01-08T10:05:57;98513.70;;;23.00;30.83
73242;BME280;65659;49.234;-2.094;2023-01-08T10:08:23;98518.83;;;22.53;30.81
73242;BME280;65659;49.234;-2.094;2023-01-08T10:10:48;98516.52;;;22.51;30.78
73242;BME280;65659;49.234;-2.094;2023-01-08T10:13:14;98517.02;;;22.55;30.78
73242;BME280;65659;49.234;-2.094;2023-01-08T10:15:40;98513.61;;;22.52;30.80
73242;BME280;65659;49.234;-2.094;2023-01-08T10:18:09;98519.37;;;22.53;30.80
73242;BME280;65659;49.234;-2.094;2023-01-08T10:20:32;98512.40;;;22.47;30.90
73242;BME280;65659;49.234;-2.094;2023-01-08T10:23:08;98512.95;;;22.93;30.91
73242;BME280;65659;49.234;-2.094;2023-01-08T10:25:24;98515.24;;;22.68;30.90
73242;BME280;65659;49.234;-2.094;2023-01-08T10:27:51;98513.63;;;22.71;30.85
73242;BME280;65659;49.234;-2.094;2023-01-08T10:30:16;98516.50;;;22.95;30.83
73242;BME280;65659;49.234;-2.094;2023-01-08T10:32:46;98505.54;;;22.71;30.84
73242;BME280;65659;49.234;-2.094;2023-01-08T10:37:36;98505.92;;;22.96;30.85
73242;BME280;65659;49.234;-2.094;2023-01-08T10:40:01;98501.67;;;22.67;30.86
73242;BME280;65659;49.234;-2.094;2023-01-08T10:42:23;98505.71;;;22.91;30.82
73242;BME280;65659;49.234;-2.094;2023-01-08T10:44:56;98501.48;;;22.66;30.83
73242;BME280;65659;49.234;-2.094;2023-01-08T10:47:16;98501.48;;;22.46;30.85
73242;BME280;65659;49.234;-2.094;2023-01-08T10:49:42;98502.34;;;22.51;30.78
73242;BME280;65659;49.234;-2.094;2023-01-08T10:54:33;98488.26;;;22.69;30.83
73242;BME280;65659;49.234;-2.094;2023-01-08T10:56:57;98486.85;;;22.74;30.78
73242;BME280;65659;49.234;-2.094;2023-01-08T10:59:23;98481.79;;;22.49;30.81
73242;BME280;65659;49.234;-2.094;2023-01-08T11:01:50;98486.40;;;22.71;30.86
73242;BME280;65659;49.234;-2.094;2023-01-08T11:04:21;98484.84;;;22.96;30.83
73242;BME280;65659;49.234;-2.094;2023-01-08T11:06:43;98473.56;;;22.74;30.80
73242;BME280;65659;49.234;-2.094;2023-01-08T11:09:15;98463.72;;;22.72;30.81
73242;BME280;65659;49.234;-2.094;2023-01-08T11:11:32;98468.38;;;22.68;30.83
73242;BME280;65659;49.234;-2.094;2023-01-08T11:13:59;98467.46;;;22.68;30.84
73242;BME280;65659;49.234;-2.094;2023-01-08T11:16:29;98463.05;;;22.47;30.81
73242;BME280;65659;49.234;-2.094;2023-01-08T11:18:49;98460.08;;;22.78;30.76
73242;BME280;65659;49.234;-2.094;2023-01-08T11:21:20;98448.24;;;22.70;30.83
73242;BME280;65659;49.234;-2.094;2023-01-08T11:23:39;98454.52;;;22.47;30.83
73242;BME280;65659;49.234;-2.094;2023-01-08T11:26:09;98448.84;;;22.73;30.75
73242;BME280;65659;49.234;-2.094;2023-01-08T11:28:41;98442.17;;;22.94;30.83
73242;BME280;65659;49.234;-2.094;2023-01-08T11:31:07;98441.08;;;22.70;30.79
73242;BME280;65659;49.234;-2.094;2023-01-08T11:33:26;98438.57;;;22.46;30.86
73242;BME280;65659;49.234;-2.094;2023-01-08T11:35:51;98436.48;;;22.94;30.74
73242;BME280;65659;49.234;-2.094;2023-01-08T11:38:14;98434.99;;;22.45;30.81
73242;BME280;65659;49.234;-2.094;2023-01-08T11:40:46;98433.35;;;22.72;30.81
73242;BME280;65659;49.234;-2.094;2023-01-08T11:43:17;98433.91;;;22.50;30.72
73242;BME280;65659;49.234;-2.094;2023-01-08T11:45:37;98431.37;;;22.51;30.69
73242;BME280;65659;49.234;-2.094;2023-01-08T11:48:08;98428.97;;;22.63;30.57
73242;BME280;65659;49.234;-2.094;2023-01-08T11:50:28;98427.47;;;23.10;30.64
73242;BME280;65659;49.234;-2.094;2023-01-08T11:53:03;98414.63;;;22.66;30.59
73242;BME280;65659;49.234;-2.094;2023-01-08T11:55:23;98422.37;;;22.54;30.75
73242;BME280;65659;49.234;-2.094;2023-01-08T11:57:47;98416.11;;;23.05;30.64
73242;BME280;65659;49.234;-2.094;2023-01-08T12:00:17;98416.52;;;22.50;30.74
73242;BME280;65659;49.234;-2.094;2023-01-08T12:07:25;98399.26;;;22.74;30.72
73242;BME280;65659;49.234;-2.094;2023-01-08T12:09:53;98403.58;;;22.51;30.70
73242;BME280;65659;49.234;-2.094;2023-01-08T12:12:23;98403.85;;;22.56;30.66
73242;BME280;65659;49.234;-2.094;2023-01-08T12:14:50;98401.27;;;22.53;30.74
73242;BME280;65659;49.234;-2.094;2023-01-08T12:17:22;98401.18;;;22.51;30.68
73242;BME280;65659;49.234;-2.094;2023-01-08T12:19:44;98396.39;;;22.76;30.70
73242;BME280;65659;49.234;-2.094;2023-01-08T12:22:08;98395.29;;;22.69;30.69
73242;BME280;65659;49.234;-2.094;2023-01-08T12:24:36;98383.10;;;22.97;30.77
73242;BME280;65659;49.234;-2.094;2023-01-08T12:26:55;98391.38;;;22.89;30.86
73242;BME280;65659;49.234;-2.094;2023-01-08T12:29:26;98399.74;;;22.89;30.87
73242;BME280;65659;49.234;-2.094;2023-01-08T12:31:54;98397.82;;;22.63;30.86
73242;BME280;65659;49.234;-2.094;2023-01-08T12:34:08;98396.65;;;22.65;30.86
73242;BME280;65659;49.234;-2.094;2023-01-08T12:36:36;98389.92;;;22.48;30.75
73242;BME280;65659;49.234;-2.094;2023-01-08T12:39:00;98389.51;;;22.90;30.85
73242;BME280;65659;49.234;-2.094;2023-01-08T12:41:24;98380.99;;;22.41;30.82
73242;BME280;65659;49.234;-2.094;2023-01-08T12:43:52;98378.36;;;22.72;30.77
73242;BME280;65659;49.234;-2.094;2023-01-08T12:46:14;98369.18;;;22.63;30.85
73242;BME280;65659;49.234;-2.094;2023-01-08T12:48:40;98358.73;;;22.90;30.80
73242;BME280;65659;49.234;-2.094;2023-01-08T12:51:09;98356.29;;;22.91;30.75
73242;BME280;65659;49.234;-2.094;2023-01-08T12:53:42;98344.86;;;22.42;30.78